East Masonville, New York
Current Conditions -  °F | °C
As of 2:53 PM on Thursday 30 Oct 2014 (Local Time) from KBGM Reporting Station
Overcast Overcast  
Wind Chill: 40°   Ceiling: 2600
Heat Index: 45°   Visibility: 10mi
Dew Point: 32°   Wind: 9mph
Humidity: 60%   Direction: 310°NW
Pressure: 30"   Gusts: NA
Location:  42.2309°N, 75.2943°W
Report Text: KBGM 301853Z 31008KT 280V340 10SM BKN026 OVC031 07/00 A3000 RMK AO2 SLP165 T00720000
Loading
Personal Weather Stations






























Interactive Weather Map
Tropical Storm Tracking
New forecast layout! Learn more

10-Day Weather Forecast

Advertisements
Track Severe Weather on mobile